Time;durP1;ratioP1;P1;durP2;ratioP2;P2;SDS_P1;SDS_P2;PMS_P1;PMS_P2;Temp;Humidity;BMP_temperature;BMP_pressure;BME280_temperature;BME280_humidity;BME280_pressure;Samples;Min_cycle;Max_cycle;Signal;HPM_P1;HPM_P2
2023/06/13 00:01:53;;;;;;;6.32;4.00;;;17.60;99.90;;;;;;5092354;28;20100;-47
2023/06/13 00:04:23;;;;;;;14.07;3.80;;;17.60;99.90;;;;;;5091616;28;20120;-50
2023/06/13 00:06:56;;;;;;;9.40;3.40;;;17.60;99.90;;;;;;5092649;28;20047;-50
2023/06/13 00:09:25;;;;;;;10.10;3.65;;;17.60;99.90;;;;;;5092380;28;20070;-46
2023/06/13 00:11:51;;;;;;;8.15;4.00;;;17.40;99.90;;;;;;5093657;28;20054;-50
2023/06/13 00:14:21;;;;;;;7.28;3.80;;;17.60;99.90;;;;;;5072958;28;20090;-47
2023/06/13 00:16:48;;;;;;;7.22;3.90;;;17.40;99.90;;;;;;5091498;28;20040;-50
2023/06/13 00:19:14;;;;;;;5.68;3.70;;;17.60;99.90;;;;;;5088755;28;20040;-46
2023/06/13 00:21:41;;;;;;;8.45;3.70;;;17.60;99.90;;;;;;5071184;28;20059;-47
2023/06/13 00:24:07;;;;;;;8.27;3.70;;;17.60;99.90;;;;;;5090590;28;20462;-50
2023/06/13 00:26:33;;;;;;;9.27;3.78;;;17.50;99.90;;;;;;5091317;28;20302;-49
2023/06/13 00:28:59;;;;;;;6.50;3.28;;;17.30;99.90;;;;;;5090414;28;20500;-51
2023/06/13 00:31:28;;;;;;;10.35;3.80;;;17.60;99.90;;;;;;5092583;28;20040;-51
2023/06/13 00:33:59;;;;;;;7.07;3.75;;;17.50;99.90;;;;;;5089327;28;20046;-48
2023/06/13 00:36:27;;;;;;;10.57;3.80;;;17.20;99.90;;;;;;5090963;28;20044;-50
2023/06/13 00:38:54;;;;;;;6.82;4.00;;;17.20;99.90;;;;;;5091366;28;20464;-47
2023/06/13 00:41:20;;;;;;;7.32;3.42;;;17.30;99.90;;;;;;5090160;28;20533;-48
2023/06/13 00:43:46;;;;;;;9.07;3.63;;;17.20;99.90;;;;;;5091601;28;20043;-50
2023/06/13 00:46:14;;;;;;;6.55;3.90;;;17.20;99.90;;;;;;5090692;28;20039;-47
2023/06/13 00:48:43;;;;;;;7.80;3.55;;;17.20;99.90;;;;;;5089547;28;20054;-48
2023/06/13 00:51:10;;;;;;;6.90;3.63;;;17.00;99.90;;;;;;5090374;28;20096;-48
2023/06/13 00:53:36;;;;;;;6.72;3.28;;;17.10;99.90;;;;;;5071182;28;20052;-47
2023/06/13 00:56:04;;;;;;;6.93;3.38;;;16.90;99.90;;;;;;5090744;28;20043;-48
2023/06/13 00:58:30;;;;;;;6.28;3.22;;;16.80;99.90;;;;;;5091289;28;20094;-49
2023/06/13 01:00:57;;;;;;;8.88;3.40;;;16.90;99.90;;;;;;5091192;28;20114;-47
2023/06/13 01:03:23;;;;;;;8.07;3.63;;;16.70;99.90;;;;;;5072398;28;20059;-48
2023/06/13 01:05:49;;;;;;;11.93;4.15;;;16.90;99.90;;;;;;5091986;28;20044;-47
2023/06/13 01:08:24;;;;;;;8.70;3.60;;;16.80;99.90;;;;;;5072302;28;20044;-46
2023/06/13 01:11:13;;;;;;;9.73;3.40;;;16.60;99.90;;;;;;5089284;28;20044;-47
2023/06/13 01:13:54;;;;;;;7.95;3.08;;;16.50;99.90;;;;;;5089944;28;20047;-49
2023/06/13 01:16:19;;;;;;;10.35;3.45;;;16.60;99.90;;;;;;5090977;28;20408;-48
2023/06/13 01:18:49;;;;;;;5.47;3.10;;;16.70;99.90;;;;;;5091215;28;20043;-50
2023/06/13 01:21:17;;;;;;;9.35;3.60;;;16.40;99.90;;;;;;5091742;28;20040;-51
2023/06/13 01:24:02;;;;;;;7.78;3.25;;;16.30;99.90;;;;;;5073647;28;20055;-48
2023/06/13 01:26:51;;;;;;;8.05;3.42;;;16.30;99.90;;;;;;5090393;28;20126;-51
2023/06/13 01:29:18;;;;;;;6.32;3.10;;;16.40;99.90;;;;;;5090355;28;20449;-50
2023/06/13 01:31:47;;;;;;;8.80;3.55;;;16.20;99.90;;;;;;5090086;28;20143;-45
2023/06/13 01:34:14;;;;;;;7.78;3.45;;;16.40;99.90;;;;;;5089499;28;20048;-46
2023/06/13 01:36:40;;;;;;;7.07;3.65;;;16.30;99.90;;;;;;5091623;28;20396;-46
2023/06/13 01:39:07;;;;;;;10.40;3.55;;;16.20;99.90;;;;;;5091725;28;20485;-49
2023/06/13 01:41:33;;;;;;;6.40;3.13;;;16.40;99.90;;;;;;5089786;28;20051;-50
2023/06/13 01:44:00;;;;;;;9.15;3.53;;;16.20;99.90;;;;;;5090373;28;20043;-46
2023/06/13 01:46:30;;;;;;;10.48;3.47;;;16.10;99.90;;;;;;5072706;28;20051;-51
2023/06/13 01:48:59;;;;;;;7.03;3.25;;;16.30;99.90;;;;;;5090872;28;20035;-45
2023/06/13 01:51:48;;;;;;;8.60;3.72;;;16.30;99.90;;;;;;5095591;28;20404;-50
2023/06/13 01:54:19;;;;;;;5.85;3.08;;;16.10;99.90;;;;;;5093565;28;20058;-49
2023/06/13 01:56:50;;;;;;;10.77;4.20;;;16.10;99.90;;;;;;5093142;28;20052;-50
2023/06/13 01:59:19;;;;;;;7.25;3.45;;;16.20;99.90;;;;;;5093913;28;20243;-50
2023/06/13 02:01:47;;;;;;;6.60;3.17;;;16.00;99.90;;;;;;5092271;28;20035;-47
2023/06/13 02:04:13;;;;;;;5.88;3.13;;;16.10;99.90;;;;;;5092613;28;20047;-47
2023/06/13 02:06:38;;;;;;;7.35;3.28;;;15.80;99.90;;;;;;5093804;28;20053;-49
2023/06/13 02:09:04;;;;;;;8.80;3.58;;;15.90;99.90;;;;;;5094648;28;20524;-49
2023/06/13 02:11:30;;;;;;;11.45;3.78;;;15.80;99.90;;;;;;5094165;28;20056;-45
2023/06/13 02:13:56;;;;;;;9.20;4.03;;;15.90;99.90;;;;;;5091811;28;20400;-45
2023/06/13 02:16:25;;;;;;;7.43;3.45;;;15.90;99.90;;;;;;5092850;28;20044;-45
2023/06/13 02:18:51;;;;;;;6.80;3.30;;;15.70;99.90;;;;;;5094327;28;20189;-49
2023/06/13 02:21:17;;;;;;;6.00;3.38;;;15.30;99.90;;;;;;5093297;28;20036;-45
2023/06/13 02:23:43;;;;;;;5.93;3.25;;;15.50;99.90;;;;;;5091781;28;20054;-49
2023/06/13 02:26:09;;;;;;;7.55;2.83;;;15.60;99.90;;;;;;5092496;28;20495;-46
2023/06/13 02:28:35;;;;;;;7.25;3.58;;;15.30;99.90;;;;;;5093141;28;20100;-46
2023/06/13 02:31:00;;;;;;;7.75;3.63;;;15.20;99.90;;;;;;5095350;28;20483;-49
2023/06/13 02:33:30;;;;;;;8.85;4.07;;;15.30;99.90;;;;;;5075383;28;20039;-45
2023/06/13 02:35:56;;;;;;;7.00;3.35;;;15.30;99.90;;;;;;5094036;28;20051;-47
2023/06/13 02:38:22;;;;;;;7.43;3.17;;;15.30;99.90;;;;;;5094207;28;20035;-46
2023/06/13 02:40:47;;;;;;;7.40;3.58;;;16.50;99.90;;;;;;5076469;28;20024;-45
2023/06/13 02:43:13;;;;;;;8.85;3.70;;;15.20;99.90;;;;;;5093738;28;20092;-47
2023/06/13 02:45:39;;;;;;;7.75;3.63;;;15.20;99.90;;;;;;5094466;28;20112;-45
2023/06/13 02:48:05;;;;;;;10.60;4.20;;;15.00;99.90;;;;;;5094113;28;20075;-45
2023/06/13 02:50:30;;;;;;;7.20;3.75;;;15.10;99.90;;;;;;5094114;28;20135;-45
2023/06/13 02:52:56;;;;;;;8.15;3.67;;;15.10;99.90;;;;;;5091063;28;20078;-49
2023/06/13 02:55:22;;;;;;;10.68;4.20;;;15.20;99.90;;;;;;5092879;28;20031;-48
2023/06/13 02:57:48;;;;;;;7.65;3.60;;;15.30;99.90;;;;;;5091516;28;20430;-46
2023/06/13 03:00:16;;;;;;;7.88;3.70;;;15.10;99.90;;;;;;5073973;28;20463;-45
2023/06/13 03:02:43;;;;;;;8.85;3.75;;;15.10;99.90;;;;;;5090257;28;20043;-49
2023/06/13 03:05:11;;;;;;;7.20;3.50;;;15.10;99.90;;;;;;5092613;28;20550;-46
2023/06/13 03:07:42;;;;;;;6.32;4.00;;;15.10;99.90;;;;;;5092100;28;20054;-49
2023/06/13 03:10:09;;;;;;;9.85;3.65;;;15.20;99.90;;;;;;5093893;28;20464;-52
2023/06/13 03:12:34;;;;;;;13.05;3.90;;;15.00;99.90;;;;;;5091413;28;20508;-46
2023/06/13 03:15:00;;;;;;;10.45;4.22;;;15.00;99.90;;;;;;5073460;28;20318;-45
2023/06/13 03:17:28;;;;;;;9.60;3.78;;;15.10;99.90;;;;;;5073146;28;20040;-47
2023/06/13 03:19:53;;;;;;;8.68;3.90;;;15.10;99.90;;;;;;5092169;28;20036;-49
2023/06/13 03:22:19;;;;;;;6.93;4.07;;;15.10;99.90;;;;;;5090890;28;20195;-46
2023/06/13 03:24:45;;;;;;;6.10;4.07;;;15.00;99.90;;;;;;5074078;28;20119;-47
2023/06/13 03:27:12;;;;;;;7.03;3.70;;;15.20;99.90;;;;;;5090951;28;20063;-45
2023/06/13 03:29:42;;;;;;;9.15;3.90;;;15.00;99.90;;;;;;5092082;28;20247;-48
2023/06/13 03:32:10;;;;;;;6.75;4.25;;;15.20;99.90;;;;;;5091556;28;20039;-49
2023/06/13 03:34:40;;;;;;;7.75;4.35;;;15.10;99.90;;;;;;5090466;28;20628;-46
2023/06/13 03:37:09;;;;;;;5.43;3.90;;;15.20;99.90;;;;;;5091055;28;20504;-45
2023/06/13 03:39:35;;;;;;;7.07;3.95;;;15.20;99.90;;;;;;5091665;28;20535;-47
2023/06/13 03:42:01;;;;;;;7.68;4.00;;;15.30;99.90;;;;;;5089619;28;20901;-48
2023/06/13 03:44:28;;;;;;;8.45;3.97;;;15.30;99.90;;;;;;5093277;28;20047;-45
2023/06/13 03:46:58;;;;;;;8.02;4.35;;;15.10;99.90;;;;;;5092431;28;20035;-46
2023/06/13 03:49:25;;;;;;;6.50;4.00;;;15.10;99.90;;;;;;5057415;28;20043;-45
2023/06/13 03:51:51;;;;;;;7.78;4.13;;;15.20;99.90;;;;;;5091819;28;20047;-48
2023/06/13 03:54:21;;;;;;;9.40;4.38;;;15.30;99.90;;;;;;5092046;28;20404;-46
2023/06/13 03:56:47;;;;;;;6.80;4.03;;;15.10;99.90;;;;;;5092432;28;20146;-45
2023/06/13 03:59:13;;;;;;;11.13;4.35;;;15.30;99.90;;;;;;5091329;28;20043;-47
2023/06/13 04:01:41;;;;;;;8.38;4.18;;;15.30;99.90;;;;;;5091021;28;20096;-46
2023/06/13 04:04:08;;;;;;;8.35;4.13;;;15.30;99.90;;;;;;5091880;28;20086;-46
2023/06/13 04:06:34;;;;;;;5.75;3.88;;;15.20;99.90;;;;;;5091341;28;20122;-46
2023/06/13 04:09:02;;;;;;;9.50;4.45;;;15.30;99.90;;;;;;5092938;28;20119;-45
2023/06/13 04:11:29;;;;;;;10.40;4.05;;;15.30;99.90;;;;;;5092424;28;20039;-46
2023/06/13 04:13:54;;;;;;;9.60;4.28;;;15.50;99.90;;;;;;5090847;28;20031;-45
2023/06/13 04:16:20;;;;;;;7.45;3.60;;;15.30;99.90;;;;;;5091025;28;20032;-45
2023/06/13 04:18:46;;;;;;;8.57;3.92;;;15.50;99.90;;;;;;5092148;28;20046;-50
2023/06/13 04:21:12;;;;;;;7.47;3.97;;;15.60;99.90;;;;;;5089932;28;20499;-50
2023/06/13 04:23:38;;;;;;;8.80;3.72;;;15.40;99.90;;;;;;5090622;28;20054;-47
2023/06/13 04:26:03;;;;;;;7.07;3.53;;;15.70;99.90;;;;;;5091125;28;20055;-45
2023/06/13 04:28:30;;;;;;;6.80;4.03;;;15.80;99.90;;;;;;5090217;28;20787;-49
2023/06/13 04:30:56;;;;;;;7.53;3.70;;;15.50;99.90;;;;;;5090366;28;20585;-46
2023/06/13 04:33:24;;;;;;;8.05;3.67;;;15.70;99.90;;;;;;5090553;28;20113;-48
2023/06/13 04:35:50;;;;;;;7.43;4.25;;;15.90;99.90;;;;;;5069356;28;20664;-48
2023/06/13 04:38:22;;;;;;;9.95;3.80;;;15.80;99.90;;;;;;5090272;28;20354;-50
2023/06/13 04:40:48;;;;;;;8.85;4.20;;;15.40;99.90;;;;;;5092323;28;20776;-45
2023/06/13 04:43:14;;;;;;;8.23;3.65;;;15.80;99.90;;;;;;5089174;28;20070;-46
2023/06/13 04:45:44;;;;;;;6.18;3.70;;;15.80;99.90;;;;;;5090261;28;20032;-46
2023/06/13 04:48:11;;;;;;;9.18;3.50;;;16.00;99.90;;;;;;5089590;28;20113;-47
2023/06/13 04:50:40;;;;;;;7.10;3.80;;;16.00;99.90;;;;;;5073632;28;20116;-47
2023/06/13 04:53:11;;;;;;;7.55;3.90;;;16.10;99.90;;;;;;5090517;28;20069;-45
2023/06/13 04:55:40;;;;;;;7.88;3.55;;;16.30;99.90;;;;;;5073059;28;20058;-45
2023/06/13 04:58:06;;;;;;;8.32;3.65;;;16.30;99.90;;;;;;5090390;28;20060;-45
2023/06/13 05:00:32;;;;;;;8.50;3.50;;;16.40;99.90;;;;;;5090083;28;20047;-45
2023/06/13 05:03:01;;;;;;;6.55;3.67;;;16.20;99.90;;;;;;5088845;28;20507;-47
2023/06/13 05:05:27;;;;;;;9.02;3.88;;;16.40;99.90;;;;;;5091937;28;20067;-48
2023/06/13 05:07:57;;;;;;;7.05;3.53;;;16.30;99.90;;;;;;5071248;28;20039;-51
2023/06/13 05:10:24;;;;;;;11.57;4.00;;;16.30;99.90;;;;;;5091968;28;20043;-46
2023/06/13 05:12:51;;;;;;;16.85;3.65;;;16.40;99.90;;;;;;5090202;28;20080;-49
2023/06/13 05:15:18;;;;;;;7.22;3.50;;;16.60;99.90;;;;;;5090089;28;20450;-46
2023/06/13 05:17:48;;;;;;;7.07;3.70;;;16.70;99.90;;;;;;5090892;28;20036;-45
2023/06/13 05:20:17;;;;;;;7.10;3.63;;;16.70;99.90;;;;;;5091480;28;20577;-45
2023/06/13 05:22:42;;;;;;;8.65;3.80;;;16.60;99.90;;;;;;5092910;28;20035;-46
2023/06/13 05:25:09;;;;;;;11.70;3.80;;;16.70;99.90;;;;;;5094564;28;20058;-48
2023/06/13 05:27:35;;;;;;;7.38;3.42;;;16.90;99.90;;;;;;5094299;28;20044;-48
2023/06/13 05:30:01;;;;;;;8.00;3.42;;;16.90;99.90;;;;;;5093053;28;20039;-49
2023/06/13 05:32:27;;;;;;;9.68;3.75;;;17.00;99.90;;;;;;5094666;28;20032;-46
2023/06/13 05:34:53;;;;;;;10.52;3.28;;;17.20;99.90;;;;;;5094338;28;20144;-46
2023/06/13 05:37:19;;;;;;;8.15;3.47;;;17.20;99.90;;;;;;5060013;28;20107;-46
2023/06/13 05:39:44;;;;;;;6.00;3.60;;;17.20;99.90;;;;;;5077031;28;20042;-46
2023/06/13 05:42:10;;;;;;;8.32;3.60;;;17.40;99.90;;;;;;5094193;28;20102;-49
2023/06/13 05:44:36;;;;;;;9.00;3.97;;;17.30;99.90;;;;;;5094847;28;20043;-46
2023/06/13 05:47:03;;;;;;;6.32;3.35;;;17.50;99.90;;;;;;5094553;28;20588;-49
2023/06/13 05:49:28;;;;;;;7.80;3.60;;;17.40;99.90;;;;;;5094383;28;20042;-47
2023/06/13 05:51:54;;;;;;;6.05;3.05;;;17.70;99.90;;;;;;5093401;28;20043;-51
2023/06/13 05:54:20;;;;;;;7.75;3.70;;;17.60;99.90;;;;;;5093460;28;20122;-48
2023/06/13 05:56:46;;;;;;;9.88;3.65;;;17.70;99.90;;;;;;5092621;28;20051;-48
2023/06/13 05:59:14;;;;;;;5.03;2.88;;;17.80;99.90;;;;;;5076497;28;20094;-49
2023/06/13 06:01:42;;;;;;;8.43;3.30;;;17.80;99.90;;;;;;5094308;28;20124;-51
2023/06/13 06:04:07;;;;;;;8.60;3.30;;;18.10;99.90;;;;;;5093625;28;20044;-47
2023/06/13 06:06:34;;;;;;;6.25;2.80;;;18.00;99.90;;;;;;5094058;28;20043;-48
2023/06/13 06:09:00;;;;;;;7.03;2.65;;;18.20;99.90;;;;;;5095314;28;20035;-50
2023/06/13 06:11:26;;;;;;;6.88;3.05;;;18.20;99.90;;;;;;5096299;28;21139;-48
2023/06/13 06:13:52;;;;;;;8.32;3.25;;;18.70;99.90;;;;;;5075312;28;20051;-46
2023/06/13 06:16:18;;;;;;;9.02;2.88;;;18.90;99.90;;;;;;5093256;28;20040;-48
2023/06/13 06:18:44;;;;;;;5.13;2.70;;;19.40;99.90;;;;;;5094313;28;20039;-49
2023/06/13 06:21:10;;;;;;;7.68;2.60;;;19.70;99.90;;;;;;5095508;28;20048;-47
2023/06/13 06:23:39;;;;;;;7.85;2.72;;;19.70;99.90;;;;;;5095822;28;20031;-48
2023/06/13 06:26:05;;;;;;;5.65;2.33;;;19.80;99.70;;;;;;5094180;28;20048;-46
2023/06/13 06:28:30;;;;;;;6.00;2.58;;;19.90;99.80;;;;;;5093473;28;20515;-47
2023/06/13 06:30:56;;;;;;;8.40;2.90;;;19.80;99.90;;;;;;5093465;28;20050;-53
2023/06/13 06:33:22;;;;;;;6.85;2.70;;;19.80;99.90;;;;;;5094569;28;20183;-52
2023/06/13 06:35:48;;;;;;;4.60;2.40;;;19.80;99.90;;;;;;5093177;28;20118;-47
2023/06/13 06:38:13;;;;;;;6.20;2.60;;;18.20;99.70;;;;;;5092721;28;20096;-51
2023/06/13 06:40:39;;;;;;;8.48;2.60;;;20.10;99.90;;;;;;5096510;28;20040;-50
2023/06/13 06:43:05;;;;;;;8.32;3.17;;;20.20;99.90;;;;;;5093015;28;20044;-48
2023/06/13 06:45:30;;;;;;;14.10;3.17;;;20.40;99.90;;;;;;5092207;28;20042;-51
2023/06/13 06:47:56;;;;;;;4.90;2.63;;;20.50;99.90;;;;;;5093005;28;20050;-51
2023/06/13 06:50:22;;;;;;;5.05;2.50;;;20.70;99.90;;;;;;5093443;28;20047;-48
2023/06/13 06:52:48;;;;;;;5.38;2.78;;;21.20;99.90;;;;;;5092994;28;20122;-46
2023/06/13 06:55:13;;;;;;;7.60;2.55;;;21.90;99.30;;;;;;5092554;28;20063;-47
2023/06/13 06:57:39;;;;;;;11.50;2.58;;;21.80;99.30;;;;;;5092828;28;20531;-47
2023/06/13 07:00:07;;;;;;;7.53;2.42;;;22.00;99.60;;;;;;5092465;28;20047;-50
2023/06/13 07:02:33;;;;;;;18.02;3.28;;;21.90;98.20;;;;;;5075595;28;20171;-48
2023/06/13 07:04:59;;;;;;;5.80;2.38;;;21.70;98.90;;;;;;5091987;28;20095;-50
2023/06/13 07:07:25;;;;;;;9.90;3.28;;;21.60;98.80;;;;;;5092982;28;20119;-51
2023/06/13 07:09:51;;;;;;;10.70;3.10;;;22.00;99.00;;;;;;5092395;28;20051;-49
2023/06/13 07:12:17;;;;;;;9.90;2.85;;;22.10;98.00;;;;;;5094922;28;20058;-48
2023/06/13 07:14:42;;;;;;;9.82;2.60;;;23.00;97.50;;;;;;5092191;28;20047;-48
2023/06/13 07:17:08;;;;;;;11.18;2.50;;;23.70;96.30;;;;;;5092539;28;20231;-49
2023/06/13 07:19:34;;;;;;;8.48;2.63;;;23.60;96.10;;;;;;5091081;28;20046;-49
2023/06/13 07:22:00;;;;;;;9.43;2.80;;;24.70;95.40;;;;;;5093714;28;20035;-47
2023/06/13 07:24:26;;;;;;;5.50;2.22;;;25.30;94.20;;;;;;5091862;28;20396;-53
2023/06/13 07:26:52;;;;;;;8.02;2.30;;;25.60;93.80;;;;;;5091660;28;20036;-50
2023/06/13 07:29:17;;;;;;;5.68;2.20;;;25.80;94.00;;;;;;5074034;28;20896;-52
2023/06/13 07:31:43;;;;;;;6.85;2.45;;;26.10;93.00;;;;;;5092147;28;20062;-48
2023/06/13 07:34:09;;;;;;;5.43;2.10;;;26.80;92.50;;;;;;5091055;28;20682;-52
2023/06/13 07:36:37;;;;;;;5.30;2.10;;;27.20;91.90;;;;;;5073469;28;20028;-48
2023/06/13 07:39:13;;;;;;;4.20;1.90;;;27.50;91.60;;;;;;5092211;28;20124;-51
2023/06/13 07:41:39;;;;;;;4.88;1.88;;;28.00;92.30;;;;;;5093590;28;20048;-52
2023/06/13 07:44:06;;;;;;;6.13;2.00;;;28.70;91.90;;;;;;5092031;28;20045;-51
2023/06/13 07:46:32;;;;;;;8.00;1.90;;;29.30;91.70;;;;;;5091540;28;20363;-53
2023/06/13 07:48:58;;;;;;;10.25;2.10;;;29.90;90.70;;;;;;5092518;28;20499;-53
2023/06/13 07:51:24;;;;;;;5.13;2.28;;;29.90;91.00;;;;;;5073255;28;20047;-53
2023/06/13 07:53:50;;;;;;;6.93;2.22;;;29.80;88.20;;;;;;5093917;28;20039;-55
2023/06/13 07:56:16;;;;;;;8.38;2.67;;;29.80;87.90;;;;;;5093241;28;20451;-53
2023/06/13 07:58:42;;;;;;;3.92;2.10;;;29.70;87.00;;;;;;5092852;28;20578;-55
2023/06/13 08:01:08;;;;;;;4.63;1.83;;;29.60;87.00;;;;;;5092055;28;20104;-52
2023/06/13 08:03:34;;;;;;;6.00;2.10;;;29.70;88.60;;;;;;5073224;28;20132;-52
2023/06/13 08:06:00;;;;;;;5.18;2.13;;;29.90;88.20;;;;;;5071894;28;20419;-54
2023/06/13 08:08:26;;;;;;;5.63;2.05;;;30.00;88.90;;;;;;5068835;28;20043;-48
2023/06/13 08:10:52;;;;;;;8.93;2.35;;;29.90;87.20;;;;;;5073018;28;20050;-50
2023/06/13 08:13:19;;;;;;;6.55;2.55;;;29.80;85.80;;;;;;5090524;28;20048;-53
2023/06/13 08:15:45;;;;;;;4.68;2.00;;;29.50;85.90;;;;;;5089727;28;20429;-51
2023/06/13 08:18:11;;;;;;;6.20;2.28;;;29.70;87.00;;;;;;5090224;28;20043;-53
2023/06/13 08:20:37;;;;;;;7.35;2.72;;;29.30;86.60;;;;;;5091179;28;20031;-51
2023/06/13 08:23:03;;;;;;;4.78;2.03;;;29.40;86.00;;;;;;5092437;28;20043;-52
2023/06/13 08:25:29;;;;;;;6.05;2.10;;;29.40;86.20;;;;;;5091963;28;20511;-50
2023/06/13 08:27:55;;;;;;;20.20;3.15;;;29.00;86.80;;;;;;5091601;28;20055;-52
2023/06/13 08:30:21;;;;;;;5.22;2.08;;;29.00;86.20;;;;;;5090589;28;20175;-48
2023/06/13 08:32:48;;;;;;;7.20;2.05;;;28.90;87.50;;;;;;5092049;28;20062;-52
2023/06/13 08:35:13;;;;;;;5.47;2.38;;;29.00;88.90;;;;;;5058552;28;21198;-53
2023/06/13 08:37:39;;;;;;;6.03;2.10;;;29.50;87.00;;;;;;5091954;28;20048;-54
2023/06/13 08:40:09;;;;;;;4.57;2.20;;;29.20;87.00;;;;;;5091544;28;20039;-50
2023/06/13 08:42:36;;;;;;;4.80;2.28;;;29.30;86.70;;;;;;5071300;28;20089;-48
2023/06/13 08:45:03;;;;;;;4.35;2.40;;;29.20;87.60;;;;;;5089887;28;20054;-55
2023/06/13 08:47:29;;;;;;;7.07;2.75;;;29.50;86.90;;;;;;5091616;28;20126;-52
2023/06/13 08:49:55;;;;;;;7.82;2.58;;;29.20;87.50;;;;;;5089975;28;21717;-51
2023/06/13 08:52:23;;;;;;;7.07;2.30;;;28.90;88.00;;;;;;5089931;28;20050;-52
2023/06/13 08:54:58;;;;;;;6.53;2.40;;;30.10;87.80;;;;;;5088362;28;20671;-49
2023/06/13 08:57:27;;;;;;;7.43;2.65;;;29.10;87.80;;;;;;5092568;28;20120;-47
2023/06/13 08:59:55;;;;;;;4.65;2.50;;;28.90;88.30;;;;;;5096345;28;20518;-51
2023/06/13 09:02:23;;;;;;;5.90;2.60;;;28.40;87.70;;;;;;5096185;28;20036;-49
2023/06/13 09:04:50;;;;;;;7.10;2.47;;;28.70;89.30;;;;;;5098484;28;20032;-50
2023/06/13 09:07:16;;;;;;;7.07;2.63;;;28.50;90.10;;;;;;5096590;28;20054;-49
2023/06/13 09:09:43;;;;;;;5.78;2.50;;;28.60;89.60;;;;;;5096235;28;20051;-51
2023/06/13 09:12:12;;;;;;;6.97;2.88;;;28.80;89.70;;;;;;5098688;28;20331;-47
2023/06/13 09:14:38;;;;;;;9.63;2.42;;;28.70;89.80;;;;;;5098068;28;20035;-54
2023/06/13 09:17:05;;;;;;;8.57;2.88;;;28.20;89.20;;;;;;5077774;28;20047;-49
2023/06/13 09:19:31;;;;;;;6.60;2.70;;;27.70;89.10;;;;;;5096095;28;20080;-47
2023/06/13 09:21:57;;;;;;;6.47;2.75;;;27.40;89.80;;;;;;5096950;28;20412;-47
2023/06/13 09:24:26;;;;;;;8.40;2.60;;;27.10;90.00;;;;;;5098284;28;20040;-49
2023/06/13 09:26:52;;;;;;;6.35;3.03;;;26.70;90.70;;;;;;5080225;28;20712;-49
2023/06/13 09:29:17;;;;;;;6.18;3.03;;;26.60;90.50;;;;;;5097421;28;20032;-47
2023/06/13 09:31:43;;;;;;;10.88;2.63;;;26.50;90.70;;;;;;5097341;28;20119;-49
2023/06/13 09:34:15;;;;;;;5.80;2.60;;;26.50;90.90;;;;;;5076995;28;20496;-51
2023/06/13 09:36:42;;;;;;;7.65;2.97;;;26.70;91.70;;;;;;5096325;28;20073;-47
2023/06/13 09:39:08;;;;;;;5.18;2.50;;;26.60;91.10;;;;;;5078237;28;20640;-48
2023/06/13 09:41:35;;;;;;;8.45;2.97;;;26.70;90.80;;;;;;5099962;28;20130;-49
2023/06/13 09:44:04;;;;;;;7.75;2.88;;;26.80;90.40;;;;;;5079926;28;20046;-48
2023/06/13 09:46:35;;;;;;;7.95;2.85;;;26.60;90.60;;;;;;5096795;28;20078;-47
2023/06/13 09:49:01;;;;;;;7.20;2.33;;;25.30;90.20;;;;;;5097329;28;20081;-50
2023/06/13 09:51:29;;;;;;;4.97;2.50;;;26.50;90.10;;;;;;5095964;28;20043;-49
2023/06/13 09:53:55;;;;;;;6.68;2.90;;;26.20;90.40;;;;;;5097702;28;20132;-49
2023/06/13 09:56:23;;;;;;;8.02;2.85;;;26.30;88.20;;;;;;5075828;28;20035;-47
2023/06/13 09:58:50;;;;;;;5.93;2.40;;;26.30;87.80;;;;;;5095013;28;20442;-48
2023/06/13 10:01:17;;;;;;;8.90;2.80;;;26.30;89.80;;;;;;5094990;28;20453;-50
2023/06/13 10:03:44;;;;;;;6.30;2.60;;;26.20;88.30;;;;;;5077952;28;20487;-45
2023/06/13 10:06:10;;;;;;;10.82;2.78;;;26.20;87.40;;;;;;5076840;28;20126;-47
2023/06/13 10:08:37;;;;;;;6.60;2.70;;;26.00;88.70;;;;;;5094752;28;20055;-50
2023/06/13 10:11:25;;;;;;;7.88;2.50;;;26.10;89.00;;;;;;5075495;28;20134;-48
2023/06/13 10:13:59;;;;;;;5.13;2.47;;;26.20;89.20;;;;;;5091843;28;20047;-46
2023/06/13 10:16:26;;;;;;;7.82;2.60;;;25.90;86.40;;;;;;5093030;28;20040;-48
2023/06/13 10:18:58;;;;;;;6.00;2.30;;;26.00;88.70;;;;;;5093391;28;20051;-49
2023/06/13 10:21:25;;;;;;;7.72;3.00;;;25.90;89.90;;;;;;5093988;28;20048;-49
2023/06/13 10:23:52;;;;;;;9.77;2.75;;;26.20;89.40;;;;;;5092743;28;20170;-47
2023/06/13 10:26:32;;;;;;;5.80;2.20;;;26.00;88.70;;;;;;5091770;28;20047;-48
2023/06/13 10:29:42;;;;;;;6.63;2.33;;;26.50;90.60;;;;;;5093024;28;20048;-47
2023/06/13 10:32:45;;;;;;;7.38;2.70;;;26.20;88.20;;;;;;5093337;28;20060;-49
2023/06/13 10:35:30;;;;;;;8.77;2.53;;;26.30;88.50;;;;;;5092597;28;20036;-49
2023/06/13 10:38:38;;;;;;;5.30;2.88;;;26.40;90.10;;;;;;5092372;28;20063;-49
2023/06/13 10:41:28;;;;;;;5.47;2.60;;;26.40;87.90;;;;;;5092470;28;20145;-47
2023/06/13 10:44:01;;;;;;;5.90;2.53;;;26.20;89.10;;;;;;5073272;28;20043;-49
2023/06/13 10:46:27;;;;;;;4.82;2.33;;;26.80;90.10;;;;;;5093053;28;20537;-50
2023/06/13 10:48:53;;;;;;;7.25;2.42;;;26.90;90.10;;;;;;5093058;28;20093;-48
2023/06/13 10:51:30;;;;;;;8.20;2.20;;;26.60;89.50;;;;;;5093466;28;20059;-49
2023/06/13 10:54:17;;;;;;;6.75;2.38;;;26.60;90.90;;;;;;5092507;28;20184;-47
2023/06/13 10:56:44;;;;;;;6.65;2.30;;;26.60;90.30;;;;;;5092964;28;20064;-46
2023/06/13 10:59:15;;;;;;;6.07;2.70;;;26.90;91.30;;;;;;5075729;28;20529;-47
2023/06/13 11:01:44;;;;;;;5.82;2.63;;;26.80;90.20;;;;;;5093536;28;20130;-49
2023/06/13 11:04:19;;;;;;;6.95;2.70;;;26.40;90.20;;;;;;5093451;28;20028;-47
2023/06/13 11:06:47;;;;;;;9.52;2.45;;;26.80;90.80;;;;;;5092415;28;20087;-50
2023/06/13 11:09:22;;;;;;;5.05;2.20;;;26.90;92.40;;;;;;5093370;28;20060;-46
2023/06/13 11:11:50;;;;;;;4.95;2.35;;;26.70;90.40;;;;;;5075914;28;20104;-46
2023/06/13 11:14:21;;;;;;;6.72;2.55;;;26.80;90.90;;;;;;5092513;28;20892;-52
2023/06/13 11:16:46;;;;;;;4.55;2.05;;;26.80;93.30;;;;;;5092053;28;20101;-51
2023/06/13 11:19:15;;;;;;;5.82;2.42;;;26.70;94.50;;;;;;5092602;28;20535;-47
2023/06/13 11:21:46;;;;;;;9.40;2.70;;;26.90;95.30;;;;;;5091862;28;20059;-48
2023/06/13 11:24:16;;;;;;;6.63;2.15;;;26.70;95.00;;;;;;5092478;28;20040;-49
2023/06/13 11:26:44;;;;;;;8.88;2.92;;;26.30;94.90;;;;;;5093011;28;20055;-48
2023/06/13 11:29:10;;;;;;;5.90;2.10;;;26.20;95.60;;;;;;5090494;28;20130;-49
2023/06/13 11:31:39;;;;;;;4.97;2.72;;;26.20;94.60;;;;;;5074265;28;20063;-49
2023/06/13 11:34:08;;;;;;;5.57;2.10;;;26.30;95.50;;;;;;5090073;28;20109;-47
2023/06/13 11:36:37;;;;;;;4.68;2.00;;;26.00;95.50;;;;;;5091829;28;20465;-49
2023/06/13 11:39:22;;;;;;;9.00;2.67;;;25.80;94.90;;;;;;5074695;28;20461;-49
2023/06/13 11:41:48;;;;;;;4.65;1.92;;;25.90;95.30;;;;;;5092725;28;20508;-47
2023/06/13 11:44:14;;;;;;;6.90;2.40;;;25.90;95.00;;;;;;5092635;28;20101;-49
2023/06/13 11:46:43;;;;;;;7.85;2.70;;;25.80;94.60;;;;;;5092065;28;20047;-47
2023/06/13 11:49:16;;;;;;;7.43;2.40;;;25.80;94.50;;;;;;5091391;28;20044;-49
2023/06/13 11:51:43;;;;;;;9.88;2.55;;;25.90;95.00;;;;;;5090871;28;21265;-48
2023/06/13 11:54:10;;;;;;;8.57;3.13;;;25.70;94.40;;;;;;5092723;28;20040;-47
2023/06/13 11:56:40;;;;;;;8.25;2.22;;;25.60;94.80;;;;;;5091265;28;20052;-46
2023/06/13 11:59:36;;;;;;;8.45;2.10;;;25.80;94.40;;;;;;5091078;28;20056;-49
2023/06/13 12:02:02;;;;;;;5.47;2.10;;;25.70;93.90;;;;;;5075009;28;20056;-52
2023/06/13 12:04:29;;;;;;;6.93;2.45;;;25.60;94.30;;;;;;5072203;28;20044;-49
2023/06/13 12:06:55;;;;;;;7.25;2.20;;;25.60;95.50;;;;;;5090258;28;20051;-49
2023/06/13 12:09:21;;;;;;;9.23;1.90;;;25.70;94.40;;;;;;5091202;28;20040;-50
2023/06/13 12:11:47;;;;;;;5.55;2.10;;;25.90;94.10;;;;;;5092951;28;20055;-50
2023/06/13 12:14:13;;;;;;;12.38;2.33;;;26.00;94.50;;;;;;5091663;28;20473;-48
2023/06/13 12:16:39;;;;;;;6.50;2.25;;;25.90;94.00;;;;;;5092141;28;20559;-48
2023/06/13 12:19:07;;;;;;;5.95;2.20;;;26.00;94.20;;;;;;5092406;28;20547;-51
2023/06/13 12:21:35;;;;;;;6.55;1.98;;;26.10;94.90;;;;;;5092936;28;20047;-51
2023/06/13 12:24:08;;;;;;;6.00;2.17;;;26.20;94.60;;;;;;5069710;28;20561;-51
2023/06/13 12:26:36;;;;;;;4.05;1.77;;;26.20;93.40;;;;;;5091782;28;20484;-47
2023/06/13 12:29:11;;;;;;;8.02;1.85;;;26.10;93.70;;;;;;5074940;28;20051;-52
2023/06/13 12:31:44;;;;;;;4.47;1.90;;;26.00;94.00;;;;;;5093098;28;20047;-49
2023/06/13 12:34:27;;;;;;;5.18;1.90;;;26.10;94.50;;;;;;5073536;28;20508;-51
2023/06/13 12:36:57;;;;;;;7.68;1.88;;;26.20;95.20;;;;;;5092096;28;21138;-48
2023/06/13 12:39:23;;;;;;;7.53;2.37;;;26.20;94.40;;;;;;5091817;28;20040;-50
2023/06/13 12:41:51;;;;;;;12.32;2.25;;;25.90;95.00;;;;;;5092748;28;20043;-50
2023/06/13 12:44:24;;;;;;;11.00;2.30;;;26.30;94.40;;;;;;5092707;28;20031;-48
2023/06/13 12:46:50;;;;;;;7.20;2.25;;;25.90;94.00;;;;;;5090388;28;20582;-48
2023/06/13 12:49:20;;;;;;;4.63;2.00;;;26.10;94.40;;;;;;5090566;28;20031;-48
2023/06/13 12:51:52;;;;;;;7.35;2.08;;;26.00;94.80;;;;;;5090621;28;20047;-51